Share

Kasuminome Air Base, Japan

12:04 PM JST on April 24, 2014 (GMT +0900)
IMIYAGIK2 Elev 348 ft | 38.28 °N, 140.85 °E | Change Station

Current weather conditions updated 4 seconds ago

Partly Cloudy
Partly Cloudy
71.6 °F
Feels Like 74 °F
N
3.8
Wind Variable Wind from East
Gusts 3.8 mph
Sunrise 4:49 AM
Sunset 6:20 PM
Moon Waning Crescent

Today is forecast to be Warmer than yesterday.

Pressure 30.21 in
Visibility 6.2 miles
Clouds Few 3000 ft
Heat Index 74 °F
Dew Point 26 °F
Humidity 18%
Rainfall 0.00 in
Snow Depth Not available.
UV 9 out of 16
Pollen Not available.
Air Quality Not available.
Flu Activity Not available.
METAR RJSS 240200Z 13008KT 9999 FEW030 16/03 Q1023

More Conditions Fewer Conditions

Pressure 30.21 in
Visibility 6.2 miles
Clouds Few 3000 ft
Heat Index 74 °F
Dew Point 26 °F
Humidity 18%
Rainfall 0.00 in
Snow Depth Not available.
UV 9 out of 16
Pollen Not available.
Air Quality Not available.
Flu Activity Not available.
METAR RJSS 240200Z 13008KT 9999 FEW030 16/03 Q1023

More Conditions Fewer Conditions

10-Day Weather Forecast

Almanac

Astronomy

Apr. 24, 2014 Rise Set
Actual Time 4:49 AM JST 6:20 PM JST
Civil Twilight 4:21 AM JST 6:48 PM JST
Nautical Twilight 3:47 AM JST 7:21 PM JST
Astronomical Twilight 3:12 AM JST 7:57 PM JST
Moon 1:30 AM JST 12:57 PM JST
Length of Visible Light 14h 26m
Length of Day
13h 31m
Tomorrow will be 2m 15s longer.
Waning Crescent, 30% of the Moon is Illuminated
Apr 23
Waning Crescent
Apr 29
New
May 6
First Quarter
May 14
Full
May 21
Last Quarter

Yesterday's Extremes

Country Highs Country Lows

Community

  • Nestled In
    Nestled In
  • Stunning Sunrise
    Stunning Sunrise
  • spring flowers
    spring flowers
  • Earth Day Spectrum Ove' Blue
    Earth Day Spectrum Ove' Blue
  • BARN B&W
    BARN B&W

WunderPhotos

Upload Photos

1,704,525 photos uploaded!

WunderBlogs® & News

Nearby

Snow Depth

Not available.

Coastal Water Temperatures

Place Temperature
No Stations Reporting

Earthquake Activity

City Distance Mag. Time & Date
No recent earthquake activity has been reported nearby.
Minimum magnitude displayed is 2.5.

Nearby Weather Stations

Station Location Temp. Heat Index Dew Point Humidity Wind Precip. Elev Updated Type
SENDAI 71.6 °F 74 °F 26 °F 18% East  at  3.8 mph 0.00 in / hr 348 ft 12:04 PM JST Rapid Fire

Show More Stations Show Fewer Stations

What do you think?

We're not finished. Please let us know what you like, what you don't like, and what you are still missing.